Carlos Barbosa, Brazil
Current Conditions -  °F | °C
As of 4:15 PM on Sunday 21 Dec 2014 (Local Time) from SBCO Reporting Station
Light Rain Light Rain  
Wind Chill: 72°   Ceiling: 500
Heat Index: 72°   Visibility: 3mi
Dew Point: 72°   Wind: 2mph
Humidity: 100%   Direction: NA
Pressure: 29.5"   Gusts: NA
Location:  29.3°S, 51.5°W
Report Text: SBCO 211815Z VRB02KT 5000 -RA BR SCT003 BKN005 FEW030TCU OVC04022/22 Q0999 RETSRA
Loading
Personal Weather Stations






























Interactive Weather Map New forecast layout! Learn more

10-Day Weather Forecast

Advertisements
Track Severe Weather on mobile